Item Display Status Humidity-temperature Sensor

Elevation Above Sea Level: 3 m

 

Deployed Sensor

  • Serial Number: 20496173
  • NDBC Property Number: 44906
  • Start Date: 2/2/2022 (10:59:24 Z)
  • End Date: Currently Active
Relative Humidity [%]     6 entries per hour
Showing data from 3/27/2022 (15:00:00 Z) to 3/26/2022 (00:00:01 Z)
Previous Next [ Day | 3-Days | 7-Days ]
First Last
Prev [ Day | 3-Days | 7-Days ] Next
First Last

Start Time:     :
End Time:     :     
Time (in GMT) :00 :50 :40 :30 :20 :10
Previous Next [ Day | 3-Days | 7-Days ]
First Last
Prev [ Day | 3-Days | 7-Days ] Next
First Last


123 => good data
MM => data is determined as missing
-- => data not received/configured
Back to Top Back to Top
3/27/2022 15:00 to 14:10 73.97 73.68 76.99 75.82 77.45 76.89
3/27/2022 14:00 to 13:10 77.56 78.08 77.60 77.03 78.43 76.66
3/27/2022 13:00 to 12:10 77.49 78.81 79.27 79.41 79.02 82.08
3/27/2022 12:00 to 11:10 81.37 80.68 79.33 79.14 79.97 79.54
3/27/2022 11:00 to 10:10 82.25 80.43 81.66 83.02 82.10 81.91
3/27/2022 10:00 to 9:10 81.33 81.18 79.70 79.83 79.33 80.16
3/27/2022 09:00 to 8:10 79.12 80.02 80.06 80.06 81.18 80.87
3/27/2022 08:00 to 7:10 80.18 81.58 81.75 79.54 79.75 80.56
3/27/2022 07:00 to 6:10 82.44 82.31 81.87 82.04 81.48 80.14
3/27/2022 06:00 to 5:10 79.20 79.06 79.41 79.35 77.35 78.04
3/27/2022 05:00 to 4:10 77.87 79.37 80.25 78.72 77.91 79.18
3/27/2022 04:00 to 3:10 79.72 78.12 79.20 79.79 78.58 80.16
3/27/2022 03:00 to 2:10 79.02 80.29 79.52 80.68 79.72 79.41
3/27/2022 02:00 to 1:10 80.04 80.66 80.14 79.58 79.22 79.08
3/27/2022 01:00 to 0:10 77.62 79.27 80.31 80.54 79.81 79.81
3/27/2022 00:00 to 23:10 78.29 78.70 79.31 79.97 80.10 80.06
3/26/2022 23:00 to 22:10 78.99 81.71 81.00 80.60 81.08 80.73
3/26/2022 22:00 to 21:10 81.64 80.95 80.98 81.58 80.06 82.56
3/26/2022 21:00 to 20:10 83.04 82.06 81.10 80.25 77.81 80.16
3/26/2022 20:00 to 19:10 82.56 80.75 81.85 80.89 82.44 80.81
3/26/2022 19:00 to 18:10 81.62 81.77 81.39 81.60 82.89 82.41
3/26/2022 18:00 to 17:10 82.50 81.48 81.43 80.54 80.04 80.73
3/26/2022 17:00 to 16:10 80.33 81.00 80.77 82.08 84.63 84.81
3/26/2022 16:00 to 15:10 85.15 82.60 83.46 83.00 82.64 83.69
3/26/2022 15:00 to 14:10 82.69 82.41 82.54 82.33 81.25 82.62
3/26/2022 14:00 to 13:10 81.77 82.94 82.35 82.16 83.10 83.48
3/26/2022 13:00 to 12:10 83.54 83.96 83.37 83.75 87.02 86.27
3/26/2022 12:00 to 11:10 85.90 85.36 85.88 86.29 86.09 85.44
3/26/2022 11:00 to 10:10 85.08 84.56 83.92 83.56 83.94 82.83
3/26/2022 10:00 to 9:10 83.56 83.29 82.98 83.94 84.50 84.52
3/26/2022 09:00 to 8:10 83.81 83.56 83.67 82.98 84.00 83.40
3/26/2022 08:00 to 7:10 82.37 81.85 81.46 80.93 81.25 79.91
3/26/2022 07:00 to 6:10 80.41 81.64 80.08 77.83 79.64 81.06
3/26/2022 06:00 to 5:10 80.22 80.04 80.81 77.97 79.68 79.54
3/26/2022 05:00 to 4:10 80.20 79.75 78.95 80.62 80.08 80.66
3/26/2022 04:00 to 3:10 79.02 79.58 80.45 78.83 77.60 79.47
3/26/2022 03:00 to 2:10 78.79 80.04 78.77 78.64 78.79 78.31
3/26/2022 02:00 to 1:10 78.43 79.49 79.06 78.64 77.74 77.37
3/26/2022 01:00 to 0:10 78.33 77.60 77.66 76.74 77.22 77.51

 

 

 

Air Temperature [°C]     6 entries per hour
Showing data from 3/27/2022 (15:00:00 Z) to 3/26/2022 (00:00:01 Z)
Previous Next [ Day | 3-Days | 7-Days ]
First Last
Prev [ Day | 3-Days | 7-Days ] Next
First Last

Start Time:     :
End Time:     :     
Time (in GMT) :00 :50 :40 :30 :20 :10
Previous Next [ Day | 3-Days | 7-Days ]
First Last
Prev [ Day | 3-Days | 7-Days ] Next
First Last


123 => good data
MM => data is determined as missing
-- => data not received/configured
Back to Top Back to Top
3/27/2022 15:00 to 14:10 26.22 26.15 26.09 25.95 25.91 25.90
3/27/2022 14:00 to 13:10 25.91 25.97 25.89 25.88 25.87 25.90
3/27/2022 13:00 to 12:10 25.91 25.94 25.90 25.81 25.88 25.86
3/27/2022 12:00 to 11:10 25.91 25.95 25.85 25.89 25.96 25.86
3/27/2022 11:00 to 10:10 26.03 25.87 25.99 26.08 25.89 26.10
3/27/2022 10:00 to 9:10 26.02 26.06 26.02 26.02 26.11 26.15
3/27/2022 09:00 to 8:10 26.11 26.10 26.22 26.19 26.14 26.24
3/27/2022 08:00 to 7:10 26.22 26.20 26.24 26.36 26.28 26.26
3/27/2022 07:00 to 6:10 26.34 26.35 26.33 26.33 26.31 26.30
3/27/2022 06:00 to 5:10 26.39 26.32 26.34 26.38 26.42 26.32
3/27/2022 05:00 to 4:10 26.42 26.32 26.41 26.39 26.38 26.43
3/27/2022 04:00 to 3:10 26.37 26.48 26.35 26.41 26.29 26.41
3/27/2022 03:00 to 2:10 26.33 26.38 26.37 26.41 26.44 26.42
3/27/2022 02:00 to 1:10 26.39 26.55 26.57 26.60 26.55 26.69
3/27/2022 01:00 to 0:10 26.60 26.59 26.59 26.61 26.57 26.60
3/27/2022 00:00 to 23:10 26.66 26.61 26.58 26.61 26.61 26.52
3/26/2022 23:00 to 22:10 26.43 26.48 26.45 26.60 26.42 26.50
3/26/2022 22:00 to 21:10 26.58 26.43 26.46 26.54 26.45 26.44
3/26/2022 21:00 to 20:10 26.48 26.51 26.48 26.57 26.57 26.40
3/26/2022 20:00 to 19:10 26.38 26.27 25.97 26.23 26.62 26.37
3/26/2022 19:00 to 18:10 26.43 26.37 26.30 26.13 26.51 26.52
3/26/2022 18:00 to 17:10 26.60 26.60 26.58 26.58 26.62 26.46
3/26/2022 17:00 to 16:10 26.54 26.52 26.52 26.61 26.37 26.16
3/26/2022 16:00 to 15:10 26.12 26.13 26.31 26.15 26.24 26.32
3/26/2022 15:00 to 14:10 26.27 26.23 26.10 26.24 26.22 26.25
3/26/2022 14:00 to 13:10 26.10 26.14 26.16 26.08 26.18 26.20
3/26/2022 13:00 to 12:10 26.14 26.21 26.18 26.16 25.85 26.13
3/26/2022 12:00 to 11:10 26.07 25.97 25.97 25.86 26.12 26.07
3/26/2022 11:00 to 10:10 26.02 26.16 26.17 26.13 26.07 26.12
3/26/2022 10:00 to 9:10 26.10 26.11 26.16 26.11 26.06 26.08
3/26/2022 09:00 to 8:10 26.16 26.21 26.20 26.24 26.29 26.29
3/26/2022 08:00 to 7:10 26.27 26.31 26.35 26.39 26.33 26.37
3/26/2022 07:00 to 6:10 26.41 26.50 26.44 26.55 26.59 26.57
3/26/2022 06:00 to 5:10 26.49 26.53 26.59 26.51 26.45 26.47
3/26/2022 05:00 to 4:10 26.37 26.41 26.38 26.40 26.35 26.43
3/26/2022 04:00 to 3:10 26.39 26.31 26.36 26.38 26.41 26.36
3/26/2022 03:00 to 2:10 26.38 26.34 26.37 26.40 26.50 26.49
3/26/2022 02:00 to 1:10 26.54 26.52 26.51 26.64 26.67 26.72
3/26/2022 01:00 to 0:10 26.72 26.67 26.67 26.66 26.67 26.59